sensor_id;sensor_type;location;lat;lon;timestamp;pressure;altitude;pressure_sealevel;temperature;humidity
30516;BME280;17297;54.022;10.760;2023-04-27T00:01:35;101777.69;;;8.04;50.38
30516;BME280;17297;54.022;10.760;2023-04-27T00:04:02;101782.19;;;8.03;50.57
30516;BME280;17297;54.022;10.760;2023-04-27T00:06:28;101779.50;;;8.03;50.41
30516;BME280;17297;54.022;10.760;2023-04-27T00:08:54;101784.72;;;8.05;50.41
30516;BME280;17297;54.022;10.760;2023-04-27T00:11:19;101785.44;;;8.07;50.52
30516;BME280;17297;54.022;10.760;2023-04-27T00:13:45;101785.44;;;8.07;50.52
30516;BME280;17297;54.022;10.760;2023-04-27T00:16:10;101778.34;;;8.06;50.51
30516;BME280;17297;54.022;10.760;2023-04-27T00:18:36;101784.56;;;8.06;50.63
30516;BME280;17297;54.022;10.760;2023-04-27T00:21:02;101784.72;;;8.05;50.68
30516;BME280;17297;54.022;10.760;2023-04-27T00:23:27;101786.56;;;8.04;50.59
30516;BME280;17297;54.022;10.760;2023-04-27T00:25:53;101780.38;;;8.04;50.79
30516;BME280;17297;54.022;10.760;2023-04-27T00:28:18;101783.03;;;8.04;50.67
30516;BME280;17297;54.022;10.760;2023-04-27T00:30:44;101781.50;;;8.01;50.71
30516;BME280;17297;54.022;10.760;2023-04-27T00:33:09;101774.44;;;8.00;50.78
30516;BME280;17297;54.022;10.760;2023-04-27T00:35:34;101772.75;;;7.99;50.72
30516;BME280;17297;54.022;10.760;2023-04-27T00:38:00;101767.56;;;7.98;50.79
30516;BME280;17297;54.022;10.760;2023-04-27T00:40:25;101774.75;;;7.97;51.01
30516;BME280;17297;54.022;10.760;2023-04-27T00:42:51;101774.06;;;7.95;50.85
30516;BME280;17297;54.022;10.760;2023-04-27T00:45:16;101775.03;;;7.94;50.94
30516;BME280;17297;54.022;10.760;2023-04-27T00:47:43;101772.53;;;7.93;51.25
30516;BME280;17297;54.022;10.760;2023-04-27T00:50:09;101777.19;;;7.91;51.09
30516;BME280;17297;54.022;10.760;2023-04-27T00:52:36;101779.19;;;7.89;51.13
30516;BME280;17297;54.022;10.760;2023-04-27T00:55:03;101784.69;;;7.87;51.17
30516;BME280;17297;54.022;10.760;2023-04-27T00:57:29;101777.66;;;7.86;51.39
30516;BME280;17297;54.022;10.760;2023-04-27T00:59:55;101784.00;;;7.85;51.36
30516;BME280;17297;54.022;10.760;2023-04-27T01:02:20;101777.94;;;7.83;51.21
30516;BME280;17297;54.022;10.760;2023-04-27T01:04:47;101778.25;;;7.80;51.48
30516;BME280;17297;54.022;10.760;2023-04-27T01:07:15;101789.25;;;7.77;51.31
30516;BME280;17297;54.022;10.760;2023-04-27T01:09:40;101786.72;;;7.75;51.47
30516;BME280;17297;54.022;10.760;2023-04-27T01:12:07;101792.25;;;7.74;51.41
30516;BME280;17297;54.022;10.760;2023-04-27T01:14:35;101787.19;;;7.71;51.47
30516;BME280;17297;54.022;10.760;2023-04-27T01:17:00;101789.84;;;7.71;51.45
30516;BME280;17297;54.022;10.760;2023-04-27T01:19:26;101790.16;;;7.68;51.65
30516;BME280;17297;54.022;10.760;2023-04-27T01:21:51;101786.75;;;7.66;51.57
30516;BME280;17297;54.022;10.760;2023-04-27T01:24:17;101793.97;;;7.65;51.63
30516;BME280;17297;54.022;10.760;2023-04-27T01:26:42;101796.09;;;7.61;51.68
30516;BME280;17297;54.022;10.760;2023-04-27T01:29:08;101798.91;;;7.60;51.64
30516;BME280;17297;54.022;10.760;2023-04-27T01:31:34;101793.72;;;7.58;51.59
30516;BME280;17297;54.022;10.760;2023-04-27T01:33:59;101792.03;;;7.57;51.77
30516;BME280;17297;54.022;10.760;2023-04-27T01:36:25;101798.53;;;7.55;51.79
30516;BME280;17297;54.022;10.760;2023-04-27T01:38:54;101800.38;;;7.54;51.96
30516;BME280;17297;54.022;10.760;2023-04-27T01:41:19;101803.19;;;7.53;51.81
30516;BME280;17297;54.022;10.760;2023-04-27T01:43:45;101799.81;;;7.51;51.87
30516;BME280;17297;54.022;10.760;2023-04-27T01:46:12;101805.31;;;7.49;52.15
30516;BME280;17297;54.022;10.760;2023-04-27T01:48:38;101809.13;;;7.47;52.05
30516;BME280;17297;54.022;10.760;2023-04-27T01:51:05;101812.78;;;7.46;52.00
30516;BME280;17297;54.022;10.760;2023-04-27T01:53:31;101812.09;;;7.44;52.22
30516;BME280;17297;54.022;10.760;2023-04-27T01:55:57;101816.59;;;7.43;52.09
30516;BME280;17297;54.022;10.760;2023-04-27T01:58:23;101813.22;;;7.41;52.36
30516;BME280;17297;54.022;10.760;2023-04-27T02:00:49;101817.75;;;7.40;52.32
30516;BME280;17297;54.022;10.760;2023-04-27T02:03:15;101812.53;;;7.39;52.20
30516;BME280;17297;54.022;10.760;2023-04-27T02:05:40;101818.03;;;7.37;52.19
30516;BME280;17297;54.022;10.760;2023-04-27T02:08:06;101822.53;;;7.37;52.39
30516;BME280;17297;54.022;10.760;2023-04-27T02:10:31;101819.16;;;7.35;52.36
30516;BME280;17297;54.022;10.760;2023-04-27T02:12:57;101818.31;;;7.34;52.44
30516;BME280;17297;54.022;10.760;2023-04-27T02:15:22;101823.84;;;7.33;52.46
30516;BME280;17297;54.022;10.760;2023-04-27T02:17:48;101822.28;;;7.30;52.48
30516;BME280;17297;54.022;10.760;2023-04-27T02:20:13;101831.44;;;7.28;52.30
30516;BME280;17297;54.022;10.760;2023-04-27T02:22:42;101828.94;;;7.26;52.55
30516;BME280;17297;54.022;10.760;2023-04-27T02:25:09;101830.06;;;7.24;52.40
30516;BME280;17297;54.022;10.760;2023-04-27T02:27:39;101837.38;;;7.22;52.45
30516;BME280;17297;54.022;10.760;2023-04-27T02:30:06;101825.28;;;7.17;52.48
30516;BME280;17297;54.022;10.760;2023-04-27T02:32:31;101831.75;;;7.15;52.62
30516;BME280;17297;54.022;10.760;2023-04-27T02:34:57;101831.06;;;7.13;52.69
30516;BME280;17297;54.022;10.760;2023-04-27T02:37:23;101832.22;;;7.10;52.71
30516;BME280;17297;54.022;10.760;2023-04-27T02:39:48;101831.63;;;7.07;52.53
30516;BME280;17297;54.022;10.760;2023-04-27T02:42:14;101840.66;;;7.06;52.64
30516;BME280;17297;54.022;10.760;2023-04-27T02:44:41;101832.78;;;7.04;52.80
30516;BME280;17297;54.022;10.760;2023-04-27T02:47:06;101839.25;;;7.02;52.63
30516;BME280;17297;54.022;10.760;2023-04-27T02:49:32;101835.88;;;7.00;52.92
30516;BME280;17297;54.022;10.760;2023-04-27T02:51:58;101830.69;;;6.98;52.93
30516;BME280;17297;54.022;10.760;2023-04-27T02:54:23;101842.22;;;6.99;52.87
30516;BME280;17297;54.022;10.760;2023-04-27T02:56:49;101845.19;;;6.96;52.91
30516;BME280;17297;54.022;10.760;2023-04-27T02:59:15;101845.47;;;6.92;52.79
30516;BME280;17297;54.022;10.760;2023-04-27T03:01:40;101836.72;;;6.90;52.83
30516;BME280;17297;54.022;10.760;2023-04-27T03:04:05;101835.03;;;6.89;53.01
30516;BME280;17297;54.022;10.760;2023-04-27T03:06:31;101832.50;;;6.88;53.13
30516;BME280;17297;54.022;10.760;2023-04-27T03:08:56;101835.34;;;6.86;52.92
30516;BME280;17297;54.022;10.760;2023-04-27T03:11:21;101834.50;;;6.86;53.10
30516;BME280;17297;54.022;10.760;2023-04-27T03:13:47;101835.47;;;6.85;52.96
30516;BME280;17297;54.022;10.760;2023-04-27T03:16:12;101832.94;;;6.83;53.02
30516;BME280;17297;54.022;10.760;2023-04-27T03:18:38;101837.44;;;6.83;53.03
30516;BME280;17297;54.022;10.760;2023-04-27T03:21:11;101830.69;;;6.79;53.35
30516;BME280;17297;54.022;10.760;2023-04-27T03:23:37;101836.03;;;6.79;53.10
30516;BME280;17297;54.022;10.760;2023-04-27T03:26:06;101839.69;;;6.78;53.45
30516;BME280;17297;54.022;10.760;2023-04-27T03:28:32;101844.19;;;6.77;53.32
30516;BME280;17297;54.022;10.760;2023-04-27T03:30:58;101841.53;;;6.77;53.42
30516;BME280;17297;54.022;10.760;2023-04-27T03:33:23;101844.19;;;6.77;53.45
30516;BME280;17297;54.022;10.760;2023-04-27T03:35:56;101847.88;;;6.76;53.48
30516;BME280;17297;54.022;10.760;2023-04-27T03:38:22;101853.34;;;6.75;53.58
30516;BME280;17297;54.022;10.760;2023-04-27T03:40:47;101858.69;;;6.75;53.49
30516;BME280;17297;54.022;10.760;2023-04-27T03:43:12;101854.19;;;6.75;53.52
30516;BME280;17297;54.022;10.760;2023-04-27T03:45:39;101857.84;;;6.74;53.60
30516;BME280;17297;54.022;10.760;2023-04-27T03:48:04;101858.84;;;6.73;53.49
30516;BME280;17297;54.022;10.760;2023-04-27T03:50:30;101857.13;;;6.72;53.48
30516;BME280;17297;54.022;10.760;2023-04-27T03:52:56;101861.66;;;6.71;53.72
30516;BME280;17297;54.022;10.760;2023-04-27T03:55:21;101866.16;;;6.71;53.70
30516;BME280;17297;54.022;10.760;2023-04-27T03:57:47;101861.81;;;6.70;53.66
30516;BME280;17297;54.022;10.760;2023-04-27T04:00:12;101871.50;;;6.71;53.74
30516;BME280;17297;54.022;10.760;2023-04-27T04:02:39;101868.00;;;6.70;53.67
30516;BME280;17297;54.022;10.760;2023-04-27T04:05:05;101871.50;;;6.71;53.88
30516;BME280;17297;54.022;10.760;2023-04-27T04:07:32;101864.19;;;6.73;53.71
30516;BME280;17297;54.022;10.760;2023-04-27T04:09:57;101865.59;;;6.77;53.91
30516;BME280;17297;54.022;10.760;2023-04-27T04:12:23;101877.13;;;6.87;54.02
30516;BME280;17297;54.022;10.760;2023-04-27T04:14:48;101878.25;;;6.94;53.73
30516;BME280;17297;54.022;10.760;2023-04-27T04:17:14;101869.66;;;7.01;53.81
30516;BME280;17297;54.022;10.760;2023-04-27T04:19:40;101871.06;;;7.05;53.81
30516;BME280;17297;54.022;10.760;2023-04-27T04:22:05;101868.13;;;7.08;53.80
30516;BME280;17297;54.022;10.760;2023-04-27T04:24:31;101868.50;;;7.13;53.89
30516;BME280;17297;54.022;10.760;2023-04-27T04:26:56;101874.00;;;7.21;54.10
30516;BME280;17297;54.022;10.760;2023-04-27T04:29:22;101872.59;;;7.27;54.13
30516;BME280;17297;54.022;10.760;2023-04-27T04:31:48;101871.00;;;7.34;54.09
30516;BME280;17297;54.022;10.760;2023-04-27T04:34:13;101876.78;;;7.39;54.12
30516;BME280;17297;54.022;10.760;2023-04-27T04:36:40;101876.91;;;7.47;53.97
30516;BME280;17297;54.022;10.760;2023-04-27T04:39:05;101877.88;;;7.56;54.17
30516;BME280;17297;54.022;10.760;2023-04-27T04:41:31;101875.84;;;7.68;53.96
30516;BME280;17297;54.022;10.760;2023-04-27T04:43:58;101874.69;;;7.80;54.12
30516;BME280;17297;54.022;10.760;2023-04-27T04:46:24;101878.56;;;7.95;54.13
30516;BME280;17297;54.022;10.760;2023-04-27T04:48:50;101873.69;;;8.08;54.07
30516;BME280;17297;54.022;10.760;2023-04-27T04:51:16;101876.72;;;8.23;53.91
30516;BME280;17297;54.022;10.760;2023-04-27T04:53:42;101877.34;;;8.45;53.88
30516;BME280;17297;54.022;10.760;2023-04-27T04:56:12;101877.41;;;8.89;53.77
30516;BME280;17297;54.022;10.760;2023-04-27T04:58:38;101882.78;;;9.33;53.63
30516;BME280;17297;54.022;10.760;2023-04-27T05:01:04;101879.34;;;9.75;53.18
30516;BME280;17297;54.022;10.760;2023-04-27T05:03:30;101893.63;;;10.09;52.92
30516;BME280;17297;54.022;10.760;2023-04-27T05:05:55;101883.00;;;10.42;52.58
30516;BME280;17297;54.022;10.760;2023-04-27T05:08:21;101879.38;;;10.76;52.31
30516;BME280;17297;54.022;10.760;2023-04-27T05:10:52;101879.22;;;11.10;52.04
30516;BME280;17297;54.022;10.760;2023-04-27T05:13:18;101885.44;;;11.43;51.74
30516;BME280;17297;54.022;10.760;2023-04-27T05:15:43;101882.31;;;11.71;51.56
30516;BME280;17297;54.022;10.760;2023-04-27T05:18:08;101883.97;;;11.96;51.59
30516;BME280;17297;54.022;10.760;2023-04-27T05:20:34;101886.00;;;12.25;51.28
30516;BME280;17297;54.022;10.760;2023-04-27T05:23:00;101887.19;;;12.54;50.88
30516;BME280;17297;54.022;10.760;2023-04-27T05:25:25;101893.75;;;12.83;50.65
30516;BME280;17297;54.022;10.760;2023-04-27T05:27:51;101887.63;;;13.12;50.46
30516;BME280;17297;54.022;10.760;2023-04-27T05:30:16;101894.13;;;13.26;50.12
30516;BME280;17297;54.022;10.760;2023-04-27T05:32:41;101895.63;;;13.28;50.09
30516;BME280;17297;54.022;10.760;2023-04-27T05:35:07;101888.53;;;13.27;49.86
30516;BME280;17297;54.022;10.760;2023-04-27T05:37:32;101900.66;;;13.31;49.74
30516;BME280;17297;54.022;10.760;2023-04-27T05:39:58;101897.28;;;13.29;49.55
30516;BME280;17297;54.022;10.760;2023-04-27T05:42:23;101894.28;;;13.24;49.46
30516;BME280;17297;54.022;10.760;2023-04-27T05:44:48;101901.53;;;13.24;49.37
30516;BME280;17297;54.022;10.760;2023-04-27T05:47:14;101904.41;;;13.22;49.29
30516;BME280;17297;54.022;10.760;2023-04-27T05:49:39;101903.84;;;13.12;49.34
30516;BME280;17297;54.022;10.760;2023-04-27T05:52:04;101906.28;;;12.99;49.18
30516;BME280;17297;54.022;10.760;2023-04-27T05:54:30;101893.50;;;12.92;49.24
30516;BME280;17297;54.022;10.760;2023-04-27T05:56:55;101903.72;;;12.82;49.34
30516;BME280;17297;54.022;10.760;2023-04-27T05:59:21;101905.94;;;12.79;49.42
30516;BME280;17297;54.022;10.760;2023-04-27T06:01:46;101907.81;;;12.78;49.26
30516;BME280;17297;54.022;10.760;2023-04-27T06:04:11;101907.00;;;12.92;49.39
30516;BME280;17297;54.022;10.760;2023-04-27T06:06:37;101900.19;;;13.28;49.31
30516;BME280;17297;54.022;10.760;2023-04-27T06:09:02;101905.34;;;13.67;48.99
30516;BME280;17297;54.022;10.760;2023-04-27T06:11:28;101906.28;;;14.04;48.69
30516;BME280;17297;54.022;10.760;2023-04-27T06:13:53;101904.84;;;14.38;48.40
30516;BME280;17297;54.022;10.760;2023-04-27T06:16:19;101909.69;;;14.57;48.21
30516;BME280;17297;54.022;10.760;2023-04-27T06:18:45;101901.91;;;14.69;47.82
30516;BME280;17297;54.022;10.760;2023-04-27T06:21:10;101907.44;;;14.82;47.69
30516;BME280;17297;54.022;10.760;2023-04-27T06:23:35;101903.34;;;14.86;47.50
30516;BME280;17297;54.022;10.760;2023-04-27T06:26:01;101909.78;;;14.85;47.35
30516;BME280;17297;54.022;10.760;2023-04-27T06:28:26;101907.78;;;14.94;47.26
30516;BME280;17297;54.022;10.760;2023-04-27T06:30:52;101905.66;;;15.39;47.02
30516;BME280;17297;54.022;10.760;2023-04-27T06:33:17;101905.03;;;15.93;46.77
30516;BME280;17297;54.022;10.760;2023-04-27T06:35:43;101917.75;;;16.34;46.23
30516;BME280;17297;54.022;10.760;2023-04-27T06:38:09;101906.16;;;16.67;45.82
30516;BME280;17297;54.022;10.760;2023-04-27T06:40:34;101907.28;;;17.05;45.45
30516;BME280;17297;54.022;10.760;2023-04-27T06:43:00;101902.28;;;17.36;44.86
30516;BME280;17297;54.022;10.760;2023-04-27T06:45:25;101904.56;;;17.59;44.59
30516;BME280;17297;54.022;10.760;2023-04-27T06:47:50;101906.00;;;17.81;44.25
30516;BME280;17297;54.022;10.760;2023-04-27T06:50:16;101910.97;;;18.11;44.03
30516;BME280;17297;54.022;10.760;2023-04-27T06:52:41;101900.94;;;18.50;43.54
30516;BME280;17297;54.022;10.760;2023-04-27T06:55:07;101901.75;;;18.95;43.00
30516;BME280;17297;54.022;10.760;2023-04-27T06:57:32;101900.09;;;19.44;42.66
30516;BME280;17297;54.022;10.760;2023-04-27T06:59:57;101910.63;;;19.84;42.36
30516;BME280;17297;54.022;10.760;2023-04-27T07:02:23;101897.66;;;20.16;41.68
30516;BME280;17297;54.022;10.760;2023-04-27T07:04:48;101895.78;;;20.47;41.58
30516;BME280;17297;54.022;10.760;2023-04-27T07:07:14;101897.84;;;20.82;40.98
30516;BME280;17297;54.022;10.760;2023-04-27T07:09:39;101903.53;;;21.22;40.42
30516;BME280;17297;54.022;10.760;2023-04-27T07:12:04;101902.59;;;21.63;39.93
30516;BME280;17297;54.022;10.760;2023-04-27T07:14:30;101899.81;;;21.99;39.06
30516;BME280;17297;54.022;10.760;2023-04-27T07:16:57;101902.28;;;22.24;38.55
30516;BME280;17297;54.022;10.760;2023-04-27T07:19:22;101905.38;;;22.27;37.96
30516;BME280;17297;54.022;10.760;2023-04-27T07:21:48;101905.28;;;21.99;37.50
30516;BME280;17297;54.022;10.760;2023-04-27T07:24:14;101901.53;;;21.41;37.57
30516;BME280;17297;54.022;10.760;2023-04-27T07:26:39;101916.00;;;20.76;37.75
30516;BME280;17297;54.022;10.760;2023-04-27T07:29:07;101914.34;;;20.08;38.02
30516;BME280;17297;54.022;10.760;2023-04-27T07:31:34;101913.50;;;19.46;38.61
30516;BME280;17297;54.022;10.760;2023-04-27T07:33:59;101914.59;;;18.88;38.81
30516;BME280;17297;54.022;10.760;2023-04-27T07:36:25;101927.41;;;18.36;39.35
30516;BME280;17297;54.022;10.760;2023-04-27T07:38:51;101925.03;;;17.88;39.38
30516;BME280;17297;54.022;10.760;2023-04-27T07:41:17;101928.00;;;17.46;39.70
30516;BME280;17297;54.022;10.760;2023-04-27T07:43:42;101933.84;;;17.10;39.90
30516;BME280;17297;54.022;10.760;2023-04-27T07:46:07;101925.44;;;16.78;40.11
30516;BME280;17297;54.022;10.760;2023-04-27T07:48:33;101932.84;;;16.50;40.36
30516;BME280;17297;54.022;10.760;2023-04-27T07:51:02;101925.22;;;16.25;40.31
30516;BME280;17297;54.022;10.760;2023-04-27T07:53:27;101936.19;;;16.04;40.44
30516;BME280;17297;54.022;10.760;2023-04-27T07:55:52;101940.25;;;15.86;40.61
30516;BME280;17297;54.022;10.760;2023-04-27T07:58:18;101938.88;;;15.69;40.97
30516;BME280;17297;54.022;10.760;2023-04-27T08:00:44;101942.00;;;15.44;40.96
30516;BME280;17297;54.022;10.760;2023-04-27T08:03:10;101947.44;;;15.23;41.12
30516;BME280;17297;54.022;10.760;2023-04-27T08:05:35;101945.22;;;15.05;41.50
30516;BME280;17297;54.022;10.760;2023-04-27T08:08:01;101945.06;;;14.92;41.18
30516;BME280;17297;54.022;10.760;2023-04-27T08:10:26;101945.97;;;14.77;41.46
30516;BME280;17297;54.022;10.760;2023-04-27T08:12:52;101949.38;;;14.65;41.66
30516;BME280;17297;54.022;10.760;2023-04-27T08:15:17;101949.53;;;14.48;41.64
30516;BME280;17297;54.022;10.760;2023-04-27T08:17:42;101958.53;;;14.34;41.64
30516;BME280;17297;54.022;10.760;2023-04-27T08:20:08;101950.50;;;14.26;41.99
30516;BME280;17297;54.022;10.760;2023-04-27T08:22:37;101942.50;;;14.18;41.98
30516;BME280;17297;54.022;10.760;2023-04-27T08:25:03;101950.88;;;14.08;42.16
30516;BME280;17297;54.022;10.760;2023-04-27T08:27:29;101951.44;;;14.03;42.23
30516;BME280;17297;54.022;10.760;2023-04-27T08:29:55;101946.50;;;14.07;42.38
30516;BME280;17297;54.022;10.760;2023-04-27T08:32:20;101948.28;;;14.15;42.43
30516;BME280;17297;54.022;10.760;2023-04-27T08:34:45;101947.72;;;14.19;42.46
30516;BME280;17297;54.022;10.760;2023-04-27T08:37:11;101935.38;;;14.17;42.36
30516;BME280;17297;54.022;10.760;2023-04-27T08:39:36;101945.66;;;14.06;42.12
30516;BME280;17297;54.022;10.760;2023-04-27T08:42:09;101946.63;;;13.99;42.21
30516;BME280;17297;54.022;10.760;2023-04-27T08:44:38;101941.66;;;14.02;42.44
30516;BME280;17297;54.022;10.760;2023-04-27T08:47:04;101942.50;;;14.03;42.23
30516;BME280;17297;54.022;10.760;2023-04-27T08:49:29;101939.72;;;13.96;42.34
30516;BME280;17297;54.022;10.760;2023-04-27T08:51:54;101944.38;;;13.88;42.30
30516;BME280;17297;54.022;10.760;2023-04-27T08:54:20;101945.56;;;13.85;42.12
30516;BME280;17297;54.022;10.760;2023-04-27T08:56:45;101943.16;;;13.90;42.15
30516;BME280;17297;54.022;10.760;2023-04-27T08:59:14;101933.63;;;13.94;42.00
30516;BME280;17297;54.022;10.760;2023-04-27T09:01:47;101925.81;;;13.99;41.91
30516;BME280;17297;54.022;10.760;2023-04-27T09:04:13;101934.00;;;14.06;41.83
30516;BME280;17297;54.022;10.760;2023-04-27T09:06:38;101928.47;;;14.14;41.87
30516;BME280;17297;54.022;10.760;2023-04-27T09:09:04;101932.97;;;14.22;41.73
30516;BME280;17297;54.022;10.760;2023-04-27T09:11:33;101927.34;;;14.23;41.45
30516;BME280;17297;54.022;10.760;2023-04-27T09:14:00;101930.06;;;14.23;41.45
30516;BME280;17297;54.022;10.760;2023-04-27T09:16:27;101924.47;;;14.25;41.61
30516;BME280;17297;54.022;10.760;2023-04-27T09:18:54;101928.22;;;14.24;41.05
30516;BME280;17297;54.022;10.760;2023-04-27T09:21:24;101925.78;;;14.14;41.20
30516;BME280;17297;54.022;10.760;2023-04-27T09:23:50;101922.81;;;14.09;41.30
30516;BME280;17297;54.022;10.760;2023-04-27T09:26:20;101920.94;;;14.09;41.60
30516;BME280;17297;54.022;10.760;2023-04-27T09:28:48;101915.63;;;14.16;41.23
30516;BME280;17297;54.022;10.760;2023-04-27T09:31:14;101915.69;;;14.23;41.06
30516;BME280;17297;54.022;10.760;2023-04-27T09:33:40;101918.03;;;14.26;41.20
30516;BME280;17297;54.022;10.760;2023-04-27T09:36:07;101916.72;;;14.22;41.26
30516;BME280;17297;54.022;10.760;2023-04-27T09:38:32;101919.81;;;14.19;41.43
30516;BME280;17297;54.022;10.760;2023-04-27T09:40:58;101907.69;;;14.15;41.40
30516;BME280;17297;54.022;10.760;2023-04-27T09:43:24;101903.03;;;14.08;41.29
30516;BME280;17297;54.022;10.760;2023-04-27T09:45:53;101902.38;;;14.06;41.51
30516;BME280;17297;54.022;10.760;2023-04-27T09:48:20;101909.47;;;14.07;41.55
30516;BME280;17297;54.022;10.760;2023-04-27T09:50:45;101910.97;;;14.10;41.69
30516;BME280;17297;54.022;10.760;2023-04-27T09:53:15;101905.44;;;14.18;41.63
30516;BME280;17297;54.022;10.760;2023-04-27T09:59:02;101922.06;;;14.15;41.97
30516;BME280;17297;54.022;10.760;2023-04-27T10:01:45;101909.84;;;14.04;41.81
30516;BME280;17297;54.022;10.760;2023-04-27T10:04:30;101908.00;;;14.05;41.82
30516;BME280;17297;54.022;10.760;2023-04-27T10:07:08;101905.53;;;14.10;41.86
30516;BME280;17297;54.022;10.760;2023-04-27T10:09:41;101902.09;;;14.16;41.52
30516;BME280;17297;54.022;10.760;2023-04-27T10:12:21;101913.66;;;14.25;41.93
30516;BME280;17297;54.022;10.760;2023-04-27T10:17:12;101918.00;;;14.41;41.70
30516;BME280;17297;54.022;10.760;2023-04-27T10:19:38;101911.63;;;14.48;41.39
30516;BME280;17297;54.022;10.760;2023-04-27T10:22:03;101905.97;;;14.58;41.45
30516;BME280;17297;54.022;10.760;2023-04-27T10:24:35;101905.28;;;14.71;41.50
30516;BME280;17297;54.022;10.760;2023-04-27T10:27:06;101900.75;;;14.78;41.17
30516;BME280;17297;54.022;10.760;2023-04-27T10:29:50;101900.53;;;14.79;41.42
30516;BME280;17297;54.022;10.760;2023-04-27T10:32:25;101911.75;;;14.76;41.10
30516;BME280;17297;54.022;10.760;2023-04-27T10:34:51;101906.94;;;14.72;40.88
30516;BME280;17297;54.022;10.760;2023-04-27T10:37:37;101909.13;;;14.62;40.87
30516;BME280;17297;54.022;10.760;2023-04-27T10:40:06;101909.06;;;14.55;41.07
30516;BME280;17297;54.022;10.760;2023-04-27T10:42:32;101917.03;;;14.48;41.04
30516;BME280;17297;54.022;10.760;2023-04-27T10:44:58;101921.38;;;14.43;41.21
30516;BME280;17297;54.022;10.760;2023-04-27T10:47:23;101918.59;;;14.36;41.13
30516;BME280;17297;54.022;10.760;2023-04-27T10:49:59;101907.47;;;14.31;41.04
30516;BME280;17297;54.022;10.760;2023-04-27T10:52:25;101917.66;;;14.29;41.16
30516;BME280;17297;54.022;10.760;2023-04-27T10:54:50;101916.63;;;14.30;41.20
30516;BME280;17297;54.022;10.760;2023-04-27T10:57:16;101921.84;;;14.31;41.14
30516;BME280;17297;54.022;10.760;2023-04-27T10:59:50;101920.19;;;14.30;41.16
30516;BME280;17297;54.022;10.760;2023-04-27T11:02:16;101922.88;;;14.30;41.17
30516;BME280;17297;54.022;10.760;2023-04-27T11:04:42;101927.47;;;14.30;40.70
30516;BME280;17297;54.022;10.760;2023-04-27T11:07:08;101920.34;;;14.29;40.58
30516;BME280;17297;54.022;10.760;2023-04-27T11:09:38;101922.59;;;14.25;40.50
30516;BME280;17297;54.022;10.760;2023-04-27T11:12:10;101928.84;;;14.26;40.80
30516;BME280;17297;54.022;10.760;2023-04-27T11:14:36;101930.72;;;14.25;40.98
30516;BME280;17297;54.022;10.760;2023-04-27T11:17:03;101919.91;;;14.25;40.74
30516;BME280;17297;54.022;10.760;2023-04-27T11:19:29;101933.44;;;14.25;40.90
30516;BME280;17297;54.022;10.760;2023-04-27T11:22:04;101936.81;;;14.27;40.93
30516;BME280;17297;54.022;10.760;2023-04-27T11:24:31;101938.91;;;14.32;40.94
30516;BME280;17297;54.022;10.760;2023-04-27T11:26:57;101933.50;;;14.32;41.00
30516;BME280;17297;54.022;10.760;2023-04-27T11:29:22;101937.91;;;14.33;40.92
30516;BME280;17297;54.022;10.760;2023-04-27T11:31:49;101938.91;;;14.32;41.00
30516;BME280;17297;54.022;10.760;2023-04-27T11:34:24;101939.31;;;14.29;41.05
30516;BME280;17297;54.022;10.760;2023-04-27T11:37:01;101943.41;;;14.25;40.81
30516;BME280;17297;54.022;10.760;2023-04-27T11:39:35;101943.78;;;14.22;40.95
30516;BME280;17297;54.022;10.760;2023-04-27T11:42:23;101941.84;;;14.16;41.11
30516;BME280;17297;54.022;10.760;2023-04-27T11:44:57;101938.00;;;14.10;41.13
30516;BME280;17297;54.022;10.760;2023-04-27T11:47:24;101945.47;;;14.08;41.35
30516;BME280;17297;54.022;10.760;2023-04-27T11:50:00;101939.41;;;14.06;41.28
30516;BME280;17297;54.022;10.760;2023-04-27T11:52:33;101944.16;;;14.04;41.39
30516;BME280;17297;54.022;10.760;2023-04-27T11:54:59;101956.69;;;14.05;41.37
30516;BME280;17297;54.022;10.760;2023-04-27T11:57:27;101948.09;;;14.01;41.17
30516;BME280;17297;54.022;10.760;2023-04-27T11:59:54;101951.81;;;14.00;41.41
30516;BME280;17297;54.022;10.760;2023-04-27T12:02:20;101950.16;;;13.99;41.40
30516;BME280;17297;54.022;10.760;2023-04-27T12:04:49;101960.16;;;13.99;41.31
30516;BME280;17297;54.022;10.760;2023-04-27T12:07:16;101959.28;;;13.98;41.36
30516;BME280;17297;54.022;10.760;2023-04-27T12:09:41;101961.53;;;13.95;41.28
30516;BME280;17297;54.022;10.760;2023-04-27T12:12:07;101962.72;;;13.92;41.24
30516;BME280;17297;54.022;10.760;2023-04-27T12:14:33;101964.78;;;13.90;41.43
30516;BME280;17297;54.022;10.760;2023-04-27T12:16:58;101966.84;;;13.88;41.34
30516;BME280;17297;54.022;10.760;2023-04-27T12:19:23;101968.88;;;13.86;41.38
30516;BME280;17297;54.022;10.760;2023-04-27T12:21:51;101978.69;;;13.87;41.60
30516;BME280;17297;54.022;10.760;2023-04-27T12:24:17;101966.66;;;13.90;41.46
30516;BME280;17297;54.022;10.760;2023-04-27T12:26:42;101969.47;;;13.96;41.51
30516;BME280;17297;54.022;10.760;2023-04-27T12:29:07;101966.03;;;14.02;41.54
30516;BME280;17297;54.022;10.760;2023-04-27T12:31:33;101966.28;;;14.07;41.59
30516;BME280;17297;54.022;10.760;2023-04-27T12:33:58;101968.25;;;14.14;41.56
30516;BME280;17297;54.022;10.760;2023-04-27T12:36:24;101965.81;;;14.19;41.54
30516;BME280;17297;54.022;10.760;2023-04-27T12:38:52;101977.31;;;14.21;41.75
30516;BME280;17297;54.022;10.760;2023-04-27T12:41:17;101968.31;;;14.20;41.77
30516;BME280;17297;54.022;10.760;2023-04-27T12:43:42;101971.91;;;14.21;41.86
30516;BME280;17297;54.022;10.760;2023-04-27T12:46:11;101980.84;;;14.21;41.94